Saturday, February 13, 2016
08:59 UTC
  |  Log In   |  Register Free
Airport Search:

Ormond Beach Municipal Airport
(KOMN)

FAA data valid effective Feb 4 2016 - Mar 31 2016 (unless otherwise noted).

 
 
 
 
 
 
 
 
 
 
 
 
 
 
Current Aviation Weather for KOMN

Weather Summary


The most recent METAR observation for OMN was updated at: 12:50 UTC
METAR for KOMN is not available. Closest METAR is for KFIN 11.1 nm SE
KFIN  (11.1 nm SE)   (most recent observation was updated at 13:08 UTC)
130835Z AUTO 26003KT 10SM CLR 13/13 A3013 RMK AO2 T01250125

KDED  (16.6 nm NE)   (most recent observation was updated at 13:08 UTC)
130835Z AUTO 26005KT 15/13 A3015 RMK AO1

TAF for KOMN is not available.
KDAB  (7.8 nm NW)   (most recent observation was updatred at 13:05 UTC)
130535Z 1306/1406 24006KT P6SM FEW030 FM131200 33010KT P6SM FEW015 SCT030 FM131500 36012G18KT P6SM SKC FM132300 02007KT P6SM SKC


KSFB  (32.1 nm NE)   (most recent observation was updatred at 13:05 UTC)
130535Z 1306/1406 25006KT P6SM SKC FM131200 32008KT P6SM FEW015 SCT030 FM131500 36012G18KT P6SM SKC FM132300 02008KT P6SM SKC


GlobalAir.com is loading additional information.
 Current Weather at OMN
66.0 F° (19.0 C°)

West winds at 13.8 mph
Pressure:
30.14 in
Humidity:
56%
Wind:
West at 13.8 mph
Dew Point:
50.0 F° (10.0 C°)
Visibility:
10.00 mi
OMN NOAA Radar




Find All Airport Services Find A Hotel Find A Rental Car Find A Golf Course Find A Restaurant $100 Hamburger



Airport Weather Forecast for KOMN

Translated METAR for KFIN (0835 UTC)
METAR:
KFIN 130835Z AUTO 26003KT 10SM CLR 13/13 A3013 RMK AO2 T01250125
Conditions at:
KFIN (Flagler County, FL) observed 0835 UTC 13 February 2016
Temperature:
13°C (55.4°F)
Dewpoint:
13°C (55.4°F) [RH = 100]
Pressure:
30.13 inches Hg (1020.3 mb)
Winds:
from the W (260 degrees) at 3.5 mph (3 knots: 1.5 m/s)
Visibility:
10 mile(s)
Ceiling:
at least 12,000 feet AGL
Clouds:
Clear below 12,000 feet AGL
Remarks:
site is un-manned
site is automated and HAS a precipitation sensor

Translated TAF for KDAB (Daytona Beach Intl, FL) (0535 UTC)
TAF text:
KDAB 130535Z 1306/1406 24006KT P6SM FEW030
Forecast period:
Saturday Feb 13 2016 06:00 UTC - Sunday Feb 14 2016 06:00 UTC
Forecast type:
FROM: standard forecast or significant change
Winds:
from the WSW (240 degrees) at 6.9 mph (6 knots: 3.1 m/s)
Visibility:
6 or more mile(s) (9.7+ km)
Ceiling:
at least 12,000 feet AGL
Clouds:
Few Clouds at 3,000 feet AGL
Weather:
no significant weather observed at this time
TAF text:
FM131200 33010KT P6SM FEW015 SCT030
Forecast period:
Saturday Feb 13 2016 12:00 UTC - Saturday Feb 13 2016 15:00 UTC
Forecast type:
FROM: standard forecast or significant change
Winds:
from the NNW (330 degrees) at 11.5 mph (10 knots: 5.1 m/s)
Visibility:
6 or more mile(s) (9.7+ km)
Ceiling:
at least 12,000 feet AGL
Clouds:
Few Clouds at 1,500 feet AGL
Scattered Clouds at 3,000 feet AGL
Weather:
no significant weather observed at this time
TAF text:
FM131500 36012G18KT P6SM SKC
Forecast period:
Saturday Feb 13 2016 15:00 UTC - Saturday Feb 13 2016 23:00 UTC
Forecast type:
FROM: standard forecast or significant change
Winds:
from the N (360 degrees) at 13.8 mph (12 knots: 6.2 m/s)
gusting to 20.7 mph (18 knots: 9.3 m/s)
Visibility:
6 or more mile(s) (9.7+ km)
Ceiling:
at least 12,000 feet AGL
Clouds:
Clear Skies
Weather:
no significant weather observed at this time
TAF text:
FM132300 02007KT P6SM SKC
Forecast period:
Saturday Feb 13 2016 23:00 UTC - Sunday Feb 14 2016 06:00 UTC
Forecast type:
FROM: standard forecast or significant change
Winds:
from the NNE (020 degrees) at 8.1 mph (7 knots: 3.6 m/s)
Visibility:
6 or more mile(s) (9.7+ km)
Ceiling:
at least 12,000 feet AGL
Clouds:
Clear Skies
Weather:
no significant weather observed at this time
FBO's on the Field
FBO Company Facility Photos Services Transportation Aviation Fuel Prices: Prices include tax
Catering Weather Repair Courtesy Rental Type 100LL JetA JetA+ MOGAS 8087
 
Sunrise Aviation

Currently rated 5 by 3 people
FS:Shell
Last Updated: Jan-12
Login to update fuel prices
SS:
Contact Sunrise AviationMore FBO Information
 
Add another FBO Facility Photos Catering Weather Repair Courtesy Rental Type 100LL JetA JetA+ MOGAS 8087
Services Transportation Aviation Fuel Prices: Prices include tax


model-print
model-print
model-print
model-print